Monroe, Indiana
Current Conditions -  °F | °C
As of 2:54 AM on Thursday 27 Nov 2014 (Local Time) from KFWA Reporting Station
Overcast Overcast  
Wind Chill: 21°   Ceiling: 3100
Heat Index: 29°   Visibility: 8mi
Dew Point: 23°   Wind: 8mph
Humidity: 78%   Direction: 340°NNW
Pressure: 30.14"   Gusts: NA
Location:  40.75°N, 84.94°W
Report Text: KFWA 270754Z 34007KT 8SM OVC031 M02/M05 A3014 RMK AO2 SLP215 T10171050
Loading
Personal Weather Stations






























Interactive Weather Map New forecast layout! Learn more

10-Day Weather Forecast

Advertisements
Track Severe Weather on mobile